Time;durP1;ratioP1;P1;durP2;ratioP2;P2;SDS_P1;SDS_P2;PMS_P1;PMS_P2;Temp;Humidity;BMP_temperature;BMP_pressure;BME280_temperature;BME280_humidity;BME280_pressure;Samples;Min_cycle;Max_cycle;Signal;HPM_P1;HPM_P2
2021/09/25 00:04:19;;;;;;;6.10;5.57;;;16.80;35.50;;;;;;10466427;28;20225;-75
2021/09/25 00:09:22;;;;;;;6.00;5.57;;;16.80;35.10;;;;;;10460472;28;20224;-74
2021/09/25 00:14:27;;;;;;;6.47;5.87;;;16.70;35.10;;;;;;10459003;28;20290;-74
2021/09/25 00:19:30;;;;;;;7.00;6.40;;;16.70;35.20;;;;;;10459867;28;20229;-75
2021/09/25 00:24:34;;;;;;;5.80;5.30;;;16.60;34.90;;;;;;10462256;28;20238;-75
2021/09/25 00:29:38;;;;;;;6.33;5.83;;;16.60;35.00;;;;;;10458885;28;20224;-75
2021/09/25 00:34:42;;;;;;;6.33;5.83;;;16.50;35.00;;;;;;10462338;28;20236;-74
2021/09/25 00:39:45;;;;;;;4.70;4.33;;;16.50;35.00;;;;;;10463650;28;20746;-75
2021/09/25 00:44:50;;;;;;;5.93;5.47;;;16.40;34.90;;;;;;10456570;28;20232;-75
2021/09/25 00:49:53;;;;;;;5.50;5.10;;;16.40;35.30;;;;;;10461731;28;20312;-75
2021/09/25 00:54:56;;;;;;;5.97;5.47;;;16.40;35.00;;;;;;10460834;28;20829;-75
2021/09/25 01:00:01;;;;;;;5.50;5.00;;;16.30;34.80;;;;;;10462596;28;20225;-75
2021/09/25 01:05:05;;;;;;;5.40;4.97;;;16.20;35.00;;;;;;10462040;28;20225;-76
2021/09/25 01:10:10;;;;;;;5.73;5.23;;;16.10;34.90;;;;;;10468204;28;20734;-74
2021/09/25 01:15:15;;;;;;;6.97;6.37;;;16.00;35.20;;;;;;10469292;28;20235;-75
2021/09/25 01:20:19;;;;;;;6.57;5.97;;;15.90;35.40;;;;;;10467495;28;20229;-75
2021/09/25 01:25:23;;;;;;;6.13;5.53;;;15.90;35.20;;;;;;10473050;28;20263;-75
2021/09/25 01:30:27;;;;;;;6.27;5.33;;;15.80;35.60;;;;;;10470811;28;20225;-75
2021/09/25 01:35:30;;;;;;;6.27;5.77;;;15.70;35.40;;;;;;10470142;28;20227;-73
2021/09/25 01:40:35;;;;;;;5.23;4.83;;;15.60;35.40;;;;;;10468458;28;20220;-75
2021/09/25 01:45:38;;;;;;;5.87;5.37;;;15.60;35.70;;;;;;10469109;28;20221;-75
2021/09/25 01:50:42;;;;;;;5.37;4.97;;;15.50;35.40;;;;;;10469480;28;20221;-74
2021/09/25 01:55:47;;;;;;;5.43;5.03;;;15.50;35.60;;;;;;10461488;28;20235;-75
2021/09/25 02:00:50;;;;;;;5.40;5.00;;;15.50;35.90;;;;;;10466237;28;20232;-74
2021/09/25 02:05:53;;;;;;;5.30;4.90;;;15.50;35.60;;;;;;10467565;28;20235;-74
2021/09/25 02:10:58;;;;;;;5.10;4.60;;;15.40;35.50;;;;;;10465024;28;20219;-75
2021/09/25 02:16:01;;;;;;;5.57;5.13;;;15.40;35.80;;;;;;10464860;28;20228;-74
2021/09/25 02:21:05;;;;;;;5.03;4.63;;;15.40;35.50;;;;;;10467031;28;20728;-75
2021/09/25 02:26:11;;;;;;;5.17;4.87;;;15.40;35.50;;;;;;10466808;28;20220;-75
2021/09/25 02:31:16;;;;;;;6.10;5.50;;;15.30;35.70;;;;;;10466467;28;20591;-74
2021/09/25 02:36:19;;;;;;;5.43;4.93;;;15.30;35.50;;;;;;10469165;28;20251;-75
2021/09/25 02:41:24;;;;;;;4.83;4.43;;;15.30;35.40;;;;;;10467679;28;20308;-75
2021/09/25 02:46:27;;;;;;;4.83;4.43;;;15.20;35.80;;;;;;10464411;28;20232;-75
2021/09/25 02:51:30;;;;;;;4.90;4.50;;;15.10;35.50;;;;;;10461258;28;20815;-74
2021/09/25 02:56:35;;;;;;;5.30;4.87;;;15.10;35.50;;;;;;10460762;28;20252;-75
2021/09/25 03:01:38;;;;;;;4.60;4.27;;;15.00;35.80;;;;;;10464666;28;20240;-75
2021/09/25 03:06:42;;;;;;;5.20;4.70;;;15.00;35.60;;;;;;10467773;28;20802;-75
2021/09/25 03:11:46;;;;;;;5.10;4.67;;;14.90;35.60;;;;;;10464971;28;20225;-75
2021/09/25 03:16:49;;;;;;;4.50;4.10;;;14.90;35.90;;;;;;10463078;28;20239;-75
2021/09/25 03:21:53;;;;;;;4.53;4.13;;;14.80;35.60;;;;;;10464004;28;20838;-75
2021/09/25 03:26:57;;;;;;;4.97;4.57;;;14.80;35.70;;;;;;10458722;28;20228;-75
2021/09/25 03:32:00;;;;;;;5.23;4.83;;;14.70;35.70;;;;;;10463386;28;20227;-74
2021/09/25 03:37:04;;;;;;;5.50;5.10;;;14.70;35.60;;;;;;10461747;28;20220;-75
2021/09/25 03:42:09;;;;;;;5.67;5.17;;;14.70;35.40;;;;;;10467785;28;20940;-74
2021/09/25 03:47:12;;;;;;;5.77;5.37;;;14.60;35.40;;;;;;10462357;28;20224;-75
2021/09/25 03:52:15;;;;;;;5.53;4.57;;;14.40;35.30;;;;;;10458615;28;20217;-74
2021/09/25 03:57:20;;;;;;;5.50;5.10;;;14.40;35.40;;;;;;10465713;28;20223;-75
2021/09/25 04:02:23;;;;;;;5.80;5.30;;;14.30;35.70;;;;;;10460487;28;20229;-75
2021/09/25 04:07:26;;;;;;;5.97;5.47;;;14.30;35.50;;;;;;10460318;28;20228;-75
2021/09/25 04:12:31;;;;;;;5.93;5.43;;;14.10;35.50;;;;;;10468950;28;20255;-74
2021/09/25 04:17:35;;;;;;;5.40;5.00;;;14.00;36.10;;;;;;10462017;28;20250;-74
2021/09/25 04:22:38;;;;;;;5.83;5.33;;;13.90;36.00;;;;;;10465504;28;20228;-74
2021/09/25 04:27:43;;;;;;;7.00;6.37;;;13.90;36.20;;;;;;10461862;28;20229;-74
2021/09/25 04:32:46;;;;;;;5.00;4.60;;;13.80;36.20;;;;;;10462499;28;20613;-74
2021/09/25 04:37:49;;;;;;;5.10;4.60;;;13.70;35.90;;;;;;10463864;28;20231;-74
2021/09/25 04:42:55;;;;;;;4.90;4.50;;;13.60;36.10;;;;;;10474284;28;20232;-75
2021/09/25 04:47:58;;;;;;;4.83;4.43;;;13.50;36.60;;;;;;10468711;28;20224;-74
2021/09/25 04:53:09;;;;;;;4.00;3.70;;;13.50;36.60;;;;;;10468053;28;20224;-74
2021/09/25 04:58:14;;;;;;;4.43;3.93;;;13.50;37.00;;;;;;10472627;28;20224;-74
2021/09/25 05:03:17;;;;;;;3.83;3.53;;;13.50;36.60;;;;;;10472021;28;20225;-74
2021/09/25 05:08:21;;;;;;;4.70;4.30;;;13.50;36.30;;;;;;10468851;28;20225;-74
2021/09/25 05:13:25;;;;;;;4.70;4.40;;;13.60;36.40;;;;;;10470373;28;20231;-74
2021/09/25 05:18:29;;;;;;;5.23;4.80;;;13.50;36.50;;;;;;10469452;28;20238;-74
2021/09/25 05:23:32;;;;;;;4.80;4.40;;;13.60;36.30;;;;;;10466242;28;20235;-74
2021/09/25 05:28:37;;;;;;;5.03;4.63;;;13.60;36.30;;;;;;10467773;28;20216;-73
2021/09/25 05:33:40;;;;;;;4.50;4.10;;;13.60;36.60;;;;;;10463041;28;20592;-74
2021/09/25 05:38:43;;;;;;;5.90;5.30;;;13.50;36.40;;;;;;10462584;28;20220;-74
2021/09/25 05:43:50;;;;;;;6.70;5.57;;;13.50;36.30;;;;;;10466720;28;20224;-73
2021/09/25 05:48:54;;;;;;;6.17;5.53;;;13.50;36.60;;;;;;10470840;28;21337;-74
2021/09/25 05:53:57;;;;;;;5.37;4.97;;;13.50;36.60;;;;;;10466796;28;20227;-74
2021/09/25 05:59:01;;;;;;;4.70;4.30;;;13.40;36.80;;;;;;10467135;28;20231;-73
2021/09/25 06:04:05;;;;;;;5.47;4.90;;;13.40;37.20;;;;;;10465140;28;20221;-74
2021/09/25 06:09:08;;;;;;;5.80;4.70;;;13.50;37.00;;;;;;10470040;28;20248;-73
2021/09/25 06:14:13;;;;;;;5.63;5.20;;;13.50;37.10;;;;;;10463883;28;20225;-74
2021/09/25 06:19:16;;;;;;;6.63;5.93;;;13.50;37.70;;;;;;10466070;28;20630;-74
2021/09/25 06:24:20;;;;;;;6.20;5.60;;;13.60;37.70;;;;;;10467232;28;20229;-75
2021/09/25 06:29:24;;;;;;;6.43;5.87;;;13.60;37.80;;;;;;10469827;28;20229;-74
2021/09/25 06:34:28;;;;;;;6.50;5.90;;;13.70;38.30;;;;;;10463807;28;20255;-74
2021/09/25 06:39:31;;;;;;;6.13;5.63;;;13.70;38.00;;;;;;10464713;28;20852;-75
2021/09/25 06:44:36;;;;;;;6.17;5.67;;;13.80;38.30;;;;;;10467710;28;20260;-73
2021/09/25 06:49:39;;;;;;;6.50;6.00;;;13.80;39.10;;;;;;10466045;28;20312;-75
2021/09/25 06:54:42;;;;;;;7.00;6.40;;;13.90;38.90;;;;;;10467792;28;20826;-75
2021/09/25 06:59:47;;;;;;;7.93;7.23;;;14.00;39.20;;;;;;10463797;28;20225;-74
2021/09/25 07:04:50;;;;;;;8.03;7.33;;;14.10;40.40;;;;;;10463697;28;20232;-74
2021/09/25 07:09:53;;;;;;;9.27;8.43;;;14.20;40.00;;;;;;10464398;28;20229;-75
2021/09/25 07:14:58;;;;;;;8.53;7.63;;;14.30;40.30;;;;;;10461139;28;20221;-74
2021/09/25 07:20:01;;;;;;;11.60;7.93;;;14.40;41.80;;;;;;10461502;28;20223;-75
2021/09/25 07:25:05;;;;;;;9.33;8.53;;;14.50;40.40;;;;;;10465152;28;20251;-75
2021/09/25 07:30:11;;;;;;;9.67;8.57;;;14.70;41.30;;;;;;10463330;28;20257;-75
2021/09/25 07:35:15;;;;;;;10.00;9.10;;;14.90;42.20;;;;;;10466686;28;20695;-75
2021/09/25 07:40:18;;;;;;;9.90;8.90;;;15.10;41.80;;;;;;10463875;28;20595;-75
2021/09/25 07:45:23;;;;;;;10.23;9.23;;;15.30;42.10;;;;;;10467084;28;20244;-75
2021/09/25 07:50:26;;;;;;;9.73;8.83;;;15.60;43.20;;;;;;10462746;28;20239;-74
2021/09/25 07:55:30;;;;;;;9.30;8.30;;;15.90;42.50;;;;;;10456563;28;20649;-75
2021/09/25 08:00:35;;;;;;;8.57;7.87;;;16.20;42.30;;;;;;10462053;28;20280;-75
2021/09/25 08:05:39;;;;;;;9.47;8.60;;;16.50;42.70;;;;;;10462088;28;20228;-74
2021/09/25 08:10:42;;;;;;;9.80;8.90;;;16.80;42.20;;;;;;10460183;28;20255;-74
2021/09/25 08:15:47;;;;;;;10.20;9.20;;;17.10;42.20;;;;;;10458812;28;20855;-75
2021/09/25 08:20:51;;;;;;;10.27;9.37;;;17.40;42.40;;;;;;10460476;28;20782;-75
2021/09/25 08:25:54;;;;;;;11.57;10.47;;;17.70;42.10;;;;;;10458948;28;21156;-75
2021/09/25 08:30:58;;;;;;;11.80;10.63;;;18.00;41.80;;;;;;10457027;28;20739;-74
2021/09/25 08:36:02;;;;;;;11.63;10.23;;;18.30;41.60;;;;;;10462376;28;20229;-74
2021/09/25 08:41:06;;;;;;;12.20;11.00;;;18.60;41.50;;;;;;10461663;28;20224;-75
2021/09/25 08:46:11;;;;;;;11.43;10.43;;;18.90;42.30;;;;;;10459074;28;20229;-74
2021/09/25 08:51:14;;;;;;;11.53;10.43;;;19.10;41.10;;;;;;10460726;28;20218;-74
2021/09/25 08:56:18;;;;;;;10.27;9.37;;;19.40;40.90;;;;;;10457574;28;20236;-75
2021/09/25 09:01:24;;;;;;;10.07;9.13;;;19.70;40.20;;;;;;10462522;28;20220;-74
2021/09/25 09:06:30;;;;;;;9.37;8.47;;;19.90;40.80;;;;;;10457545;28;20256;-74
2021/09/25 09:11:35;;;;;;;9.50;8.57;;;20.20;40.20;;;;;;10458079;28;20213;-73
2021/09/25 09:16:40;;;;;;;10.23;9.37;;;20.50;40.50;;;;;;10458589;28;20217;-75
2021/09/25 09:21:43;;;;;;;9.63;8.73;;;20.70;40.00;;;;;;10456891;28;20922;-75
2021/09/25 09:26:47;;;;;;;9.90;9.03;;;21.00;40.20;;;;;;10466154;28;20220;-74
2021/09/25 09:31:56;;;;;;;9.63;8.83;;;21.20;39.90;;;;;;10467946;28;20231;-75
2021/09/25 09:37:11;;;;;;;9.57;8.67;;;21.50;39.10;;;;;;10469076;28;20746;-75
2021/09/25 09:42:15;;;;;;;9.40;8.40;;;21.60;38.80;;;;;;10465953;28;20220;-76
2021/09/25 09:47:22;;;;;;;7.73;7.13;;;21.90;38.60;;;;;;10467447;28;20229;-75
2021/09/25 09:52:26;;;;;;;8.70;8.00;;;22.20;38.40;;;;;;10470985;28;20225;-74
2021/09/25 09:57:30;;;;;;;9.00;8.23;;;22.40;38.60;;;;;;10468646;28;20304;-75
2021/09/25 10:02:37;;;;;;;8.10;7.30;;;22.60;38.40;;;;;;10458938;28;20333;-76
2021/09/25 10:07:43;;;;;;;7.93;7.33;;;23.00;38.00;;;;;;10454299;28;20224;-75
2021/09/25 10:12:47;;;;;;;8.23;7.43;;;23.20;38.10;;;;;;10458561;28;20235;-76
2021/09/25 10:17:52;;;;;;;7.37;6.70;;;23.40;38.00;;;;;;10457416;28;20696;-75
2021/09/25 10:22:56;;;;;;;7.33;6.63;;;23.60;37.00;;;;;;10458717;28;20276;-75
2021/09/25 10:27:59;;;;;;;7.13;6.53;;;23.80;37.20;;;;;;10458885;28;20224;-75
2021/09/25 10:33:14;;;;;;;6.70;6.10;;;24.00;36.60;;;;;;10465222;28;20221;-75
2021/09/25 10:38:32;;;;;;;7.07;6.47;;;24.20;36.00;;;;;;10464223;28;20718;-75
2021/09/25 10:43:55;;;;;;;5.13;4.73;;;24.40;35.60;;;;;;10456682;28;20232;-75
2021/09/25 10:49:00;;;;;;;4.17;3.87;;;24.50;35.30;;;;;;10463080;28;20217;-76
2021/09/25 10:54:04;;;;;;;3.80;3.40;;;24.70;34.40;;;;;;10449786;28;20229;-76
2021/09/25 10:59:08;;;;;;;4.57;3.17;;;24.90;34.30;;;;;;10458967;28;20225;-76
2021/09/25 11:04:20;;;;;;;3.43;3.13;;;25.00;34.50;;;;;;10458243;28;20315;-76
2021/09/25 11:09:32;;;;;;;3.80;2.80;;;25.20;32.60;;;;;;10454936;28;20232;-76
2021/09/25 11:14:41;;;;;;;3.57;3.33;;;25.40;32.00;;;;;;10456270;28;20233;-76
2021/09/25 11:19:52;;;;;;;4.33;3.70;;;25.50;31.50;;;;;;10453133;28;20229;-76
2021/09/25 11:24:58;;;;;;;3.77;3.47;;;25.70;31.40;;;;;;10450216;28;20235;-75
2021/09/25 11:30:05;;;;;;;3.47;3.27;;;25.80;31.00;;;;;;10467396;28;20217;-75
2021/09/25 11:35:13;;;;;;;3.77;3.30;;;25.90;31.00;;;;;;10464728;28;20221;-75
2021/09/25 11:40:16;;;;;;;3.60;3.40;;;26.00;30.30;;;;;;10455606;28;20225;-76
2021/09/25 11:45:20;;;;;;;3.40;3.20;;;26.00;30.90;;;;;;10454318;28;20224;-75
2021/09/25 11:50:28;;;;;;;3.50;3.30;;;26.10;30.80;;;;;;10449586;28;20248;-76
2021/09/25 11:55:32;;;;;;;3.80;3.50;;;26.10;29.70;;;;;;10460647;28;20728;-77
2021/09/25 12:00:38;;;;;;;3.83;3.57;;;26.20;30.50;;;;;;10469848;28;20244;-75
2021/09/25 12:05:44;;;;;;;5.00;3.50;;;26.30;29.90;;;;;;10479756;28;20239;-75
2021/09/25 12:10:49;;;;;;;3.50;3.30;;;26.30;29.40;;;;;;10474678;28;20220;-75
2021/09/25 12:15:54;;;;;;;3.50;3.30;;;26.30;30.50;;;;;;10481255;28;20236;-74
2021/09/25 12:21:01;;;;;;;3.60;3.23;;;26.30;29.40;;;;;;10468659;28;20722;-75
2021/09/25 12:26:04;;;;;;;3.60;3.30;;;26.40;28.80;;;;;;10465543;28;20228;-75
2021/09/25 12:31:11;;;;;;;3.13;2.90;;;26.40;29.40;;;;;;10468245;28;20221;-75
2021/09/25 12:36:17;;;;;;;3.33;3.13;;;26.50;29.00;;;;;;10471346;28;20254;-75
2021/09/25 12:41:22;;;;;;;3.47;3.27;;;26.50;28.40;;;;;;10475717;28;20311;-75
2021/09/25 12:46:28;;;;;;;3.20;3.00;;;26.60;28.60;;;;;;10477464;28;20591;-74
2021/09/25 12:51:34;;;;;;;3.00;2.90;;;26.50;28.00;;;;;;10476714;28;20224;-75
2021/09/25 12:56:40;;;;;;;3.60;3.40;;;26.60;27.80;;;;;;10469477;28;20242;-75
2021/09/25 13:01:45;;;;;;;4.17;3.60;;;26.60;28.10;;;;;;10474330;28;20231;-76
2021/09/25 13:06:54;;;;;;;3.70;3.40;;;26.60;28.00;;;;;;10479209;28;20244;-76
2021/09/25 13:12:15;;;;;;;4.00;3.60;;;26.60;27.30;;;;;;10480029;28;20220;-76
2021/09/25 13:17:18;;;;;;;3.47;3.27;;;26.60;28.10;;;;;;10477279;28;20226;-76
2021/09/25 13:22:26;;;;;;;3.27;3.07;;;26.70;28.50;;;;;;10474724;28;24837;-76
2021/09/25 13:27:31;;;;;;;4.03;3.30;;;26.70;27.50;;;;;;10487743;28;20224;-76
2021/09/25 13:32:34;;;;;;;3.23;2.93;;;26.70;27.80;;;;;;10486441;28;20278;-76
2021/09/25 13:37:39;;;;;;;3.63;3.37;;;26.80;27.90;;;;;;10474043;28;20231;-76
2021/09/25 13:42:42;;;;;;;3.63;3.20;;;26.80;27.30;;;;;;10476911;28;20251;-76
2021/09/25 13:47:45;;;;;;;3.23;3.03;;;26.80;27.50;;;;;;10479806;28;20627;-76
2021/09/25 13:52:51;;;;;;;3.50;3.20;;;26.80;27.80;;;;;;10477124;28;20303;-76
2021/09/25 13:57:54;;;;;;;3.17;2.97;;;26.90;27.10;;;;;;10487377;28;20572;-76
2021/09/25 14:02:58;;;;;;;3.40;3.20;;;26.90;27.20;;;;;;10476323;28;20232;-76
2021/09/25 14:08:06;;;;;;;3.50;3.30;;;26.90;27.50;;;;;;10484197;28;20718;-75
2021/09/25 14:13:10;;;;;;;3.07;2.87;;;27.00;26.90;;;;;;10471754;28;20960;-76
2021/09/25 14:18:13;;;;;;;3.90;2.97;;;27.00;27.20;;;;;;10478878;28;20224;-76
2021/09/25 14:23:18;;;;;;;3.00;2.80;;;27.00;27.10;;;;;;10477618;28;20975;-76
2021/09/25 14:28:21;;;;;;;2.90;2.70;;;27.10;26.50;;;;;;10475729;28;20220;-76
2021/09/25 14:33:24;;;;;;;3.07;2.87;;;27.10;26.90;;;;;;10474700;28;20309;-76
2021/09/25 14:38:29;;;;;;;3.23;2.80;;;27.10;26.60;;;;;;10476644;28;20228;-76
2021/09/25 14:43:33;;;;;;;3.27;2.97;;;27.10;26.40;;;;;;10477402;28;20224;-76
2021/09/25 14:48:36;;;;;;;2.93;2.67;;;27.10;26.50;;;;;;10475117;28;20231;-77
2021/09/25 14:53:41;;;;;;;3.07;2.87;;;27.10;26.40;;;;;;10474659;28;20244;-76
2021/09/25 14:58:44;;;;;;;4.20;2.87;;;27.10;26.20;;;;;;10477541;28;20231;-75
2021/09/25 15:03:48;;;;;;;3.20;3.00;;;27.10;26.40;;;;;;10472808;28;20255;-76
2021/09/25 15:08:53;;;;;;;2.90;2.70;;;27.10;26.40;;;;;;10478926;28;20240;-76
2021/09/25 15:13:58;;;;;;;3.10;2.80;;;27.10;25.90;;;;;;10477900;28;20775;-76
2021/09/25 15:19:01;;;;;;;2.93;2.73;;;27.10;26.10;;;;;;10472160;28;20225;-76
2021/09/25 15:24:06;;;;;;;3.20;3.00;;;27.10;26.00;;;;;;10467403;28;20213;-76
2021/09/25 15:29:10;;;;;;;3.03;2.83;;;27.10;25.50;;;;;;10474440;28;20220;-76
2021/09/25 15:34:13;;;;;;;2.90;2.70;;;27.10;26.00;;;;;;10480944;28;20593;-76
2021/09/25 15:39:17;;;;;;;3.10;2.90;;;27.10;26.00;;;;;;10473447;28;20235;-76
2021/09/25 15:44:22;;;;;;;3.97;2.90;;;27.10;25.80;;;;;;10473985;28;20319;-75
2021/09/25 15:49:25;;;;;;;3.83;2.90;;;27.10;26.00;;;;;;10468815;28;20228;-75
2021/09/25 15:54:32;;;;;;;3.13;2.93;;;27.00;26.00;;;;;;10475403;28;20228;-76
2021/09/25 15:59:35;;;;;;;3.10;2.90;;;27.00;25.80;;;;;;10469856;28;20224;-76
2021/09/25 16:04:39;;;;;;;3.23;2.77;;;27.00;26.00;;;;;;10466895;28;20856;-76
2021/09/25 16:09:44;;;;;;;3.13;2.93;;;27.00;26.00;;;;;;10465155;28;20226;-76
2021/09/25 16:14:47;;;;;;;4.67;2.83;;;26.90;25.90;;;;;;10471021;28;20224;-76
2021/09/25 16:19:53;;;;;;;3.00;2.80;;;26.90;26.50;;;;;;10477184;28;20232;-76
2021/09/25 16:24:57;;;;;;;3.10;2.90;;;26.80;26.60;;;;;;10475847;28;20246;-76
2021/09/25 16:30:00;;;;;;;3.87;3.03;;;26.80;26.70;;;;;;10478451;28;20512;-76
2021/09/25 16:35:04;;;;;;;2.93;2.73;;;26.70;27.00;;;;;;10469711;28;20224;-76
2021/09/25 16:40:10;;;;;;;3.50;3.30;;;26.60;27.20;;;;;;10475518;28;20223;-76
2021/09/25 16:45:13;;;;;;;3.47;3.20;;;26.50;27.30;;;;;;10470413;28;20253;-76
2021/09/25 16:50:16;;;;;;;3.23;3.03;;;26.40;27.50;;;;;;10477489;28;20230;-76
2021/09/25 16:55:21;;;;;;;3.13;2.93;;;26.30;27.60;;;;;;10468750;28;20240;-77
2021/09/25 17:00:24;;;;;;;3.50;3.20;;;26.10;27.90;;;;;;10468796;28;20228;-76
2021/09/25 17:05:27;;;;;;;3.73;3.30;;;26.00;27.70;;;;;;10467417;28;20237;-76
2021/09/25 17:10:32;;;;;;;4.37;3.13;;;25.80;27.90;;;;;;10473438;28;20229;-76
2021/09/25 17:15:35;;;;;;;3.63;3.33;;;25.70;28.20;;;;;;10472226;28;20315;-76
2021/09/25 17:20:39;;;;;;;3.80;3.50;;;25.50;28.30;;;;;;10477171;28;20231;-76
2021/09/25 17:25:44;;;;;;;4.20;3.50;;;25.40;29.10;;;;;;10482238;28;20233;-75
2021/09/25 17:30:47;;;;;;;3.80;3.50;;;25.20;28.80;;;;;;10481723;28;20232;-76
2021/09/25 17:35:50;;;;;;;3.80;3.50;;;25.00;28.70;;;;;;10472642;28;20233;-76
2021/09/25 17:40:55;;;;;;;3.37;3.17;;;24.90;28.60;;;;;;10479093;28;20230;-76
2021/09/25 17:45:58;;;;;;;4.60;3.17;;;24.80;28.70;;;;;;10473211;28;20224;-76
2021/09/25 17:51:02;;;;;;;3.47;3.23;;;24.70;28.50;;;;;;10485339;28;20311;-76
2021/09/25 17:56:07;;;;;;;3.70;3.40;;;24.50;28.60;;;;;;10471701;28;20220;-75
2021/09/25 18:01:11;;;;;;;3.67;3.37;;;24.40;29.10;;;;;;10477111;28;20243;-75
2021/09/25 18:06:15;;;;;;;3.90;3.60;;;24.30;29.00;;;;;;10480993;28;20220;-75
2021/09/25 18:11:19;;;;;;;4.90;4.50;;;24.20;29.10;;;;;;10479045;28;20686;-75
2021/09/25 18:16:22;;;;;;;4.80;4.40;;;24.10;29.40;;;;;;10490958;28;20232;-75
2021/09/25 18:21:26;;;;;;;4.50;4.20;;;23.80;29.10;;;;;;10487197;28;20712;-75
2021/09/25 18:26:31;;;;;;;4.27;3.97;;;23.60;29.40;;;;;;10484748;28;20243;-75
2021/09/25 18:31:34;;;;;;;5.13;4.73;;;23.50;29.80;;;;;;10488290;28;20603;-75
2021/09/25 18:36:37;;;;;;;7.17;4.47;;;23.30;29.70;;;;;;10483459;28;20235;-75
2021/09/25 18:41:42;;;;;;;5.03;4.63;;;23.20;29.70;;;;;;10479802;28;20228;-75
2021/09/25 18:46:45;;;;;;;4.93;4.53;;;23.10;30.00;;;;;;10478999;28;20611;-75
2021/09/25 18:51:48;;;;;;;5.57;4.93;;;23.00;29.90;;;;;;10482400;28;20220;-75
2021/09/25 18:56:53;;;;;;;4.83;4.43;;;22.90;30.00;;;;;;10475314;28;20244;-76
2021/09/25 19:01:56;;;;;;;4.73;4.43;;;22.80;30.20;;;;;;10478819;28;20233;-76
2021/09/25 19:06:59;;;;;;;5.20;4.80;;;22.70;30.00;;;;;;10480670;28;20228;-75
2021/09/25 19:12:05;;;;;;;5.40;4.90;;;22.60;30.30;;;;;;10487480;28;20228;-76
2021/09/25 19:17:09;;;;;;;5.50;5.00;;;22.50;30.70;;;;;;10469244;28;20243;-73
2021/09/25 19:22:12;;;;;;;4.77;4.37;;;22.40;30.60;;;;;;10462969;28;20227;-74
2021/09/25 19:27:17;;;;;;;5.73;5.23;;;22.20;30.40;;;;;;10469402;28;20220;-74
2021/09/25 19:32:20;;;;;;;5.40;5.00;;;22.10;30.80;;;;;;10464014;28;21031;-74
2021/09/25 19:37:24;;;;;;;5.27;4.80;;;21.90;30.80;;;;;;10464928;28;20239;-74
2021/09/25 19:42:28;;;;;;;6.57;4.93;;;21.80;31.10;;;;;;10466167;28;20267;-74
2021/09/25 19:47:32;;;;;;;5.50;5.10;;;21.70;31.60;;;;;;10459344;28;20233;-74
2021/09/25 19:52:35;;;;;;;5.47;4.90;;;21.60;31.20;;;;;;10459375;28;20235;-74
2021/09/25 19:57:40;;;;;;;5.10;4.70;;;21.60;31.50;;;;;;10466004;28;20290;-75
2021/09/25 20:02:44;;;;;;;6.10;5.50;;;21.50;31.90;;;;;;10465257;28;20221;-74
2021/09/25 20:07:47;;;;;;;5.87;5.47;;;21.50;31.80;;;;;;10463627;28;20239;-75
2021/09/25 20:12:52;;;;;;;5.20;4.80;;;21.50;31.80;;;;;;10466453;28;20274;-74
2021/09/25 20:17:55;;;;;;;5.77;5.27;;;21.40;32.30;;;;;;10470634;28;20228;-75
2021/09/25 20:23:02;;;;;;;5.27;4.87;;;21.40;31.90;;;;;;10465129;28;20229;-75
2021/09/25 20:28:07;;;;;;;6.17;5.67;;;21.40;32.20;;;;;;10470409;28;20243;-74
2021/09/25 20:33:10;;;;;;;6.87;6.27;;;21.30;32.80;;;;;;10467000;28;20228;-74
2021/09/25 20:38:13;;;;;;;5.53;5.13;;;21.30;32.40;;;;;;10465132;28;20219;-74
2021/09/25 20:43:18;;;;;;;6.77;6.17;;;21.30;32.50;;;;;;10454768;28;20235;-74
2021/09/25 20:48:21;;;;;;;5.80;5.40;;;21.20;33.10;;;;;;10463640;28;20235;-74
2021/09/25 20:53:25;;;;;;;6.70;6.20;;;21.20;32.70;;;;;;10466466;28;20238;-74
2021/09/25 20:58:30;;;;;;;6.50;5.90;;;21.10;32.90;;;;;;10468429;28;20239;-75
2021/09/25 21:03:33;;;;;;;6.83;6.33;;;21.00;33.20;;;;;;10465931;28;20303;-74
2021/09/25 21:08:38;;;;;;;7.10;6.50;;;20.90;33.10;;;;;;10467550;28;20236;-74
2021/09/25 21:13:43;;;;;;;7.63;6.97;;;20.80;33.20;;;;;;10464852;28;20649;-74
2021/09/25 21:18:46;;;;;;;6.97;6.40;;;20.80;34.00;;;;;;10463216;28;20263;-74
2021/09/25 21:23:49;;;;;;;7.17;6.57;;;20.70;33.40;;;;;;10473383;28;20603;-74
2021/09/25 21:28:54;;;;;;;8.57;7.77;;;20.70;33.60;;;;;;10476907;28;20225;-76
2021/09/25 21:33:58;;;;;;;8.70;7.90;;;20.60;34.00;;;;;;10474812;28;20525;-75
2021/09/25 21:39:01;;;;;;;12.50;11.33;;;20.60;33.90;;;;;;10476128;28;20224;-74
2021/09/25 21:44:07;;;;;;;10.80;9.00;;;20.50;34.20;;;;;;10471941;28;20220;-74
2021/09/25 21:49:11;;;;;;;10.63;9.63;;;20.50;34.80;;;;;;10472888;28;20855;-75
2021/09/25 21:54:14;;;;;;;10.07;9.17;;;20.50;34.40;;;;;;10468635;28;20791;-76
2021/09/25 21:59:19;;;;;;;9.50;8.40;;;20.40;34.40;;;;;;10464230;28;21310;-74
2021/09/25 22:04:22;;;;;;;8.87;8.17;;;20.40;34.80;;;;;;10474054;28;20350;-74
2021/09/25 22:09:25;;;;;;;7.83;7.13;;;20.30;34.80;;;;;;10469646;28;20938;-74
2021/09/25 22:14:30;;;;;;;8.37;7.67;;;20.30;34.70;;;;;;10472158;28;20228;-74
2021/09/25 22:19:33;;;;;;;8.90;8.00;;;20.30;35.50;;;;;;10466919;28;20229;-75
2021/09/25 22:24:37;;;;;;;10.83;9.73;;;20.20;35.00;;;;;;10466807;28;20238;-74
2021/09/25 22:29:41;;;;;;;14.17;12.93;;;20.10;35.00;;;;;;10469940;28;20212;-73
2021/09/25 22:34:49;;;;;;;13.63;12.43;;;20.00;35.90;;;;;;10465218;28;20228;-73
2021/09/25 22:39:52;;;;;;;9.17;8.37;;;20.00;35.40;;;;;;10475018;28;20320;-74
2021/09/25 22:44:57;;;;;;;9.00;8.10;;;20.00;35.60;;;;;;10475925;28;21017;-74
2021/09/25 22:50:02;;;;;;;9.23;8.43;;;20.00;36.50;;;;;;10477625;28;20239;-74
2021/09/25 22:55:06;;;;;;;9.70;7.90;;;20.00;36.60;;;;;;10487503;28;20872;-74
2021/09/25 23:00:12;;;;;;;9.13;8.23;;;20.00;36.40;;;;;;10475468;28;20900;-74
2021/09/25 23:05:15;;;;;;;8.37;7.57;;;20.00;36.50;;;;;;10482120;28;20235;-74
2021/09/25 23:10:19;;;;;;;8.70;7.80;;;20.00;36.20;;;;;;10477750;28;20263;-74
2021/09/25 23:15:23;;;;;;;7.60;7.00;;;19.90;36.40;;;;;;10476140;28;20324;-74
2021/09/25 23:20:26;;;;;;;8.33;7.50;;;19.90;36.40;;;;;;10482692;28;20220;-75
2021/09/25 23:25:30;;;;;;;7.73;7.03;;;19.90;36.40;;;;;;10484744;28;20227;-74
2021/09/25 23:30:34;;;;;;;7.63;6.97;;;19.90;36.40;;;;;;10485645;28;20228;-75
2021/09/25 23:35:38;;;;;;;7.70;7.07;;;19.90;36.50;;;;;;10474817;28;20726;-74
2021/09/25 23:40:42;;;;;;;7.33;6.73;;;19.90;36.40;;;;;;10473189;28;20227;-74
2021/09/25 23:45:47;;;;;;;7.50;6.73;;;19.90;36.40;;;;;;10444451;28;1162925;-74
2021/09/25 23:50:50;;;;;;;9.20;7.57;;;19.90;36.90;;;;;;10469872;28;20650;-74
2021/09/25 23:55:53;;;;;;;7.97;7.27;;;19.90;36.40;;;;;;10487160;28;20826;-75
